Time;durP1;ratioP1;P1;durP2;ratioP2;P2;SDS_P1;SDS_P2;PMS_P1;PMS_P2;Temp;Humidity;BMP_temperature;BMP_pressure;BME280_temperature;BME280_humidity;BME280_pressure;Samples;Min_cycle;Max_cycle;Signal;HPM_P1;HPM_P2
2022/10/30 00:00:00;;;;;;;57.23;14.63;;;;;;;;;;5069938;28;20504;-61
2022/10/30 00:02:27;;;;;;;60.00;15.10;;;;;;;;;;5073004;28;20481;-62
2022/10/30 00:04:54;;;;;;;63.73;16.90;;;14.90;99.90;;;;;;5054625;28;20466;-61
2022/10/30 00:07:21;;;;;;;63.07;18.80;;;14.90;99.90;;;;;;5063948;28;20484;-62
2022/10/30 00:09:47;;;;;;;44.47;15.23;;;14.80;99.90;;;;;;5068062;28;20573;-62
2022/10/30 00:12:16;;;;;;;47.20;17.37;;;14.70;99.90;;;;;;5067430;28;20482;-61
2022/10/30 00:14:42;;;;;;;38.83;16.60;;;14.80;99.90;;;;;;5058371;28;20672;-62
2022/10/30 00:17:09;;;;;;;29.77;15.03;;;14.80;99.90;;;;;;5062685;28;20476;-62
2022/10/30 00:19:36;;;;;;;32.13;14.30;;;14.80;99.90;;;;;;5077710;28;20885;-61
2022/10/30 00:22:03;;;;;;;37.00;13.90;;;14.70;99.90;;;;;;5072796;28;20856;-61
2022/10/30 00:24:30;;;;;;;42.13;13.67;;;14.70;99.90;;;;;;5069489;28;20835;-61
2022/10/30 00:26:56;;;;;;;42.40;14.40;;;14.60;99.90;;;;;;5065757;28;20482;-63
2022/10/30 00:29:25;;;;;;;62.00;17.30;;;;;;;;;;5073759;28;20472;-62
2022/10/30 00:31:52;;;;;;;23.43;11.83;;;14.60;99.90;;;;;;5070651;28;20589;-62
2022/10/30 00:34:19;;;;;;;49.53;18.43;;;12.60;99.90;;;;;;5068603;28;20499;-62
2022/10/30 00:36:46;;;;;;;43.33;17.33;;;;;;;;;;5071286;28;20847;-61
2022/10/30 00:39:13;;;;;;;45.93;17.13;;;;;;;;;;5072587;28;20761;-61
2022/10/30 00:41:40;;;;;;;26.70;12.87;;;;;;;;;;5073922;28;20474;-60
2022/10/30 00:44:22;;;;;;;45.17;13.57;;;;;;;;;;5068782;28;20890;-61
2022/10/30 00:46:50;;;;;;;46.07;15.57;;;14.40;99.90;;;;;;5068375;28;20499;-62
2022/10/30 00:49:17;;;;;;;36.10;15.10;;;14.40;99.90;;;;;;5071808;28;20474;-62
2022/10/30 00:51:48;;;;;;;43.13;15.30;;;14.30;99.90;;;;;;5070919;28;20608;-62
2022/10/30 00:54:16;;;;;;;81.00;19.60;;;;;;;;;;5071886;28;20727;-62
2022/10/30 00:56:45;;;;;;;63.67;18.23;;;14.30;99.90;;;;;;5062271;28;20576;-62
2022/10/30 00:59:19;;;;;;;52.00;18.10;;;14.30;99.90;;;;;;5080360;28;20477;-61
2022/10/30 01:01:47;;;;;;;40.73;12.50;;;14.30;99.90;;;;;;5066633;28;20481;-61
2022/10/30 01:04:16;;;;;;;70.80;18.53;;;14.30;99.90;;;;;;5067637;28;20787;-61
2022/10/30 01:06:47;;;;;;;65.10;17.53;;;14.20;99.90;;;;;;5074735;28;20482;-62
2022/10/30 01:09:14;;;;;;;38.00;15.20;;;14.20;99.90;;;;;;5069094;28;20569;-63
2022/10/30 01:11:41;;;;;;;33.23;11.00;;;14.10;99.90;;;;;;5070907;28;20478;-61
2022/10/30 01:14:10;;;;;;;27.50;12.27;;;;;;;;;;5067086;28;20481;-61
2022/10/30 01:16:50;;;;;;;42.80;13.47;;;14.00;99.90;;;;;;5070928;28;21183;-62
2022/10/30 01:19:26;;;;;;;29.97;14.60;;;14.00;99.90;;;;;;5067538;28;20609;-62
2022/10/30 01:22:10;;;;;;;26.43;11.60;;;13.90;99.90;;;;;;5062079;28;21033;-62
2022/10/30 01:24:50;;;;;;;26.63;12.03;;;13.90;99.90;;;;;;5070231;28;20854;-61
2022/10/30 01:27:25;;;;;;;28.30;12.03;;;;;;;;;;5057072;28;20709;-61
2022/10/30 01:29:56;;;;;;;39.17;12.87;;;;;;;;;;5061064;28;20481;-61
2022/10/30 01:32:38;;;;;;;42.20;14.70;;;13.80;99.90;;;;;;5069828;28;20977;-61
2022/10/30 01:35:10;;;;;;;68.53;16.40;;;;;;;;;;5065796;28;20497;-61
2022/10/30 01:37:40;;;;;;;49.60;13.87;;;;;;;;;;5073601;28;20839;-61
2022/10/30 01:40:10;;;;;;;72.63;16.57;;;;;;;;;;5063768;28;20482;-61
2022/10/30 01:42:47;;;;;;;56.37;12.80;;;13.70;99.90;;;;;;5068078;28;20586;-61
2022/10/30 01:45:17;;;;;;;103.87;19.53;;;13.70;99.90;;;;;;5065976;28;20501;-62
2022/10/30 01:47:54;;;;;;;78.77;15.30;;;13.60;99.90;;;;;;5068529;28;21021;-61
2022/10/30 01:50:32;;;;;;;80.13;18.10;;;13.60;99.90;;;;;;5065264;28;20908;-61
2022/10/30 01:53:04;;;;;;;43.53;14.60;;;13.60;99.90;;;;;;5072128;28;20913;-62
2022/10/30 01:55:37;;;;;;;42.00;11.90;;;13.50;99.90;;;;;;5054112;28;20565;-62
2022/10/30 01:58:14;;;;;;;28.70;12.73;;;13.50;99.90;;;;;;5080370;28;20482;-61
2022/10/30 02:00:43;;;;;;;40.90;11.77;;;12.90;99.90;;;;;;5071581;28;21001;-62
2022/10/30 02:03:10;;;;;;;34.87;13.97;;;13.50;99.90;;;;;;5068895;28;20840;-62
2022/10/30 02:05:41;;;;;;;18.70;10.37;;;;;;;;;;5072163;28;20477;-62
2022/10/30 02:08:07;;;;;;;27.00;10.97;;;13.50;99.90;;;;;;5071126;28;20467;-61
2022/10/30 02:10:36;;;;;;;31.33;10.93;;;13.40;99.90;;;;;;5068212;28;20565;-61
2022/10/30 02:13:03;;;;;;;48.03;14.60;;;13.40;99.90;;;;;;5071423;28;20481;-60
2022/10/30 02:15:31;;;;;;;27.90;11.57;;;13.40;99.90;;;;;;5069747;28;20764;-60
2022/10/30 02:17:58;;;;;;;61.57;15.20;;;13.40;99.90;;;;;;5062885;28;20478;-61
2022/10/30 02:20:27;;;;;;;77.17;16.30;;;13.50;99.90;;;;;;5073244;28;20481;-62
2022/10/30 02:22:54;;;;;;;30.93;11.70;;;12.90;99.90;;;;;;5070819;28;20490;-60
2022/10/30 02:25:20;;;;;;;33.17;14.10;;;13.40;99.90;;;;;;5067297;28;20502;-61
2022/10/30 02:27:48;;;;;;;23.73;10.80;;;;;;;;;;5068537;28;20474;-61
2022/10/30 02:30:14;;;;;;;31.53;13.83;;;13.40;99.90;;;;;;5066452;28;20502;-61
2022/10/30 02:32:41;;;;;;;30.30;12.03;;;13.30;99.90;;;;;;5060040;28;20486;-61
2022/10/30 02:35:09;;;;;;;30.50;11.70;;;;;;;;;;5080911;28;21967;-61
2022/10/30 02:37:38;;;;;;;31.57;10.67;;;16.10;99.90;;;;;;5065000;28;20474;-62
2022/10/30 02:40:07;;;;;;;17.77;9.63;;;;;;;;;;5071433;28;20474;-61
2022/10/30 02:42:33;;;;;;;26.33;10.40;;;13.10;99.90;;;;;;5076185;28;20576;-61
2022/10/30 02:45:00;;;;;;;30.60;12.00;;;13.10;99.90;;;;;;5068669;28;20490;-61
2022/10/30 02:47:28;;;;;;;23.40;11.33;;;13.10;99.90;;;;;;5066523;28;20477;-62
2022/10/30 02:49:56;;;;;;;31.10;13.87;;;;;;;;;;5068105;28;20845;-61
2022/10/30 02:52:23;;;;;;;34.23;16.27;;;;;;;;;;5073981;28;20497;-62
2022/10/30 02:54:51;;;;;;;26.33;12.97;;;13.20;99.90;;;;;;5067221;28;20502;-60
2022/10/30 02:57:18;;;;;;;33.03;13.53;;;13.20;99.90;;;;;;5061847;28;20871;-61
2022/10/30 02:59:45;;;;;;;35.20;13.43;;;13.20;99.90;;;;;;5065312;28;20493;-61
2022/10/30 03:02:11;;;;;;;56.93;16.47;;;13.30;99.90;;;;;;5064132;28;20487;-61
2022/10/30 03:04:38;;;;;;;47.97;14.33;;;;;;;;;;5065888;28;20818;-62
2022/10/30 03:07:05;;;;;;;53.60;14.57;;;13.20;99.90;;;;;;5058556;28;20852;-62
2022/10/30 03:09:32;;;;;;;82.03;18.27;;;13.20;99.90;;;;;;5072765;28;20482;-61
2022/10/30 03:12:00;;;;;;;56.17;15.43;;;13.20;99.90;;;;;;5066459;28;21081;-62
2022/10/30 03:14:27;;;;;;;36.13;13.30;;;;;;;;;;5069261;28;22081;-61
2022/10/30 03:16:54;;;;;;;37.73;12.20;;;12.40;99.90;;;;;;5068061;28;20611;-62
2022/10/30 03:19:20;;;;;;;46.50;15.03;;;13.10;99.90;;;;;;5068237;28;20486;-61
2022/10/30 03:21:47;;;;;;;25.90;12.13;;;13.10;99.90;;;;;;5061623;28;20847;-60
2022/10/30 03:24:14;;;;;;;39.83;13.60;;;13.00;99.90;;;;;;5072283;28;20490;-61
2022/10/30 03:26:41;;;;;;;45.80;12.10;;;13.00;99.90;;;;;;5065811;28;20479;-60
2022/10/30 03:29:09;;;;;;;33.23;10.77;;;12.90;99.90;;;;;;5069300;28;20487;-61
2022/10/30 03:31:36;;;;;;;46.90;11.70;;;12.30;99.90;;;;;;5072787;28;20494;-61
2022/10/30 03:34:03;;;;;;;30.67;10.40;;;;;;;;;;5073582;28;20771;-61
2022/10/30 03:36:30;;;;;;;48.03;13.17;;;;;;;;;;5072243;28;20791;-61
2022/10/30 03:38:57;;;;;;;40.67;11.90;;;12.70;99.90;;;;;;5072125;28;20479;-61
2022/10/30 03:41:23;;;;;;;58.33;16.40;;;12.70;99.90;;;;;;5071320;28;20478;-61
2022/10/30 03:43:51;;;;;;;29.57;12.13;;;;;;;;;;5072459;28;20981;-61
2022/10/30 03:46:19;;;;;;;63.67;18.47;;;12.80;99.90;;;;;;5070192;28;20742;-61
2022/10/30 03:48:49;;;;;;;34.57;11.03;;;12.90;99.90;;;;;;5071437;28;20486;-61
2022/10/30 03:51:16;;;;;;;40.93;15.83;;;12.80;99.90;;;;;;5069584;28;20867;-61
2022/10/30 03:53:43;;;;;;;30.77;11.80;;;12.90;99.90;;;;;;5073465;28;20470;-61
2022/10/30 03:56:10;;;;;;;45.03;13.77;;;12.80;99.90;;;;;;5072250;28;20486;-61
2022/10/30 03:58:37;;;;;;;55.17;12.80;;;12.80;99.90;;;;;;5070346;28;20735;-61
2022/10/30 04:01:06;;;;;;;36.83;11.70;;;12.80;99.90;;;;;;5071330;28;20482;-61
2022/10/30 04:03:34;;;;;;;56.83;12.50;;;12.90;99.90;;;;;;5072298;28;21065;-61
2022/10/30 04:06:01;;;;;;;52.87;13.43;;;12.80;99.90;;;;;;5068836;28;21123;-60
2022/10/30 04:08:28;;;;;;;30.27;13.33;;;12.70;99.90;;;;;;5069832;28;20959;-61
2022/10/30 04:10:55;;;;;;;41.13;11.47;;;12.70;99.90;;;;;;5068304;28;21007;-61
2022/10/30 04:13:22;;;;;;;45.33;13.77;;;;;;;;;;5085308;28;20603;-60
2022/10/30 04:15:49;;;;;;;38.27;12.27;;;;;;;;;;5066825;28;20878;-61
2022/10/30 04:18:16;;;;;;;39.43;13.07;;;12.60;99.90;;;;;;5065922;28;21186;-62
2022/10/30 04:20:46;;;;;;;32.60;11.27;;;;;;;;;;5072076;28;20489;-61
2022/10/30 04:23:14;;;;;;;27.07;10.73;;;;;;;;;;5066696;28;20668;-62
2022/10/30 04:25:41;;;;;;;29.47;10.90;;;12.50;99.90;;;;;;5067929;28;20500;-61
2022/10/30 04:28:07;;;;;;;33.17;11.37;;;12.50;99.90;;;;;;5079832;28;20949;-61
2022/10/30 04:30:35;;;;;;;41.07;11.30;;;;;;;;;;5073670;28;20482;-61
2022/10/30 04:33:03;;;;;;;25.37;11.77;;;;;;;;;;5068354;28;20476;-61
2022/10/30 04:35:32;;;;;;;22.07;12.93;;;12.40;99.90;;;;;;5070895;28;20722;-61
2022/10/30 04:38:01;;;;;;;24.83;11.20;;;12.40;99.90;;;;;;5071756;28;20490;-62
2022/10/30 04:40:29;;;;;;;26.23;10.10;;;12.30;99.90;;;;;;5060171;28;20655;-61
2022/10/30 04:42:57;;;;;;;24.93;10.97;;;12.30;99.90;;;;;;5067258;28;20539;-62
2022/10/30 04:45:24;;;;;;;25.90;12.17;;;;;;;;;;5079180;28;20474;-62
2022/10/30 04:47:51;;;;;;;33.17;11.20;;;12.20;99.80;;;;;;5071701;28;20465;-61
2022/10/30 04:50:18;;;;;;;39.47;15.50;;;;;;;;;;5071311;28;20957;-61
2022/10/30 04:52:46;;;;;;;28.37;9.80;;;;;;;;;;5066904;28;20478;-61
2022/10/30 04:55:14;;;;;;;45.23;13.80;;;11.70;99.90;;;;;;5069455;28;21098;-62
2022/10/30 04:57:40;;;;;;;28.00;10.67;;;11.70;99.90;;;;;;5067915;28;20820;-62
2022/10/30 05:00:09;;;;;;;37.30;13.07;;;11.80;99.90;;;;;;5066940;28;20814;-61
2022/10/30 05:02:36;;;;;;;55.60;13.07;;;;;;;;;;5073438;28;20959;-61
2022/10/30 05:05:04;;;;;;;63.50;12.17;;;11.70;99.90;;;;;;5084261;28;20485;-61
2022/10/30 05:07:31;;;;;;;54.03;10.30;;;;;;;;;;5074773;28;20645;-61
2022/10/30 05:09:57;;;;;;;104.17;15.63;;;11.80;99.90;;;;;;5074721;28;20482;-62
2022/10/30 05:12:26;;;;;;;90.13;16.33;;;;;;;;;;5074544;28;20482;-61
2022/10/30 05:14:53;;;;;;;43.40;10.47;;;;;;;;;;5072071;28;20844;-61
2022/10/30 05:17:20;;;;;;;43.57;14.43;;;11.70;99.40;;;;;;5081512;28;20472;-62
2022/10/30 05:19:47;;;;;;;30.47;11.27;;;;;;;;;;5077208;28;20481;-61
2022/10/30 05:22:14;;;;;;;34.83;14.27;;;11.60;99.60;;;;;;5082267;28;20483;-62
2022/10/30 05:24:41;;;;;;;23.60;8.77;;;11.60;99.60;;;;;;5078583;28;21037;-62
2022/10/30 05:27:08;;;;;;;29.17;11.27;;;10.30;99.10;;;;;;5066007;28;20976;-62
2022/10/30 05:29:36;;;;;;;23.97;7.67;;;11.50;99.50;;;;;;5078302;28;20478;-61
2022/10/30 05:32:02;;;;;;;23.73;9.70;;;11.50;99.30;;;;;;5072374;28;20480;-61
2022/10/30 05:34:29;;;;;;;28.57;10.10;;;11.40;99.40;;;;;;5077264;28;20486;-62
2022/10/30 05:36:56;;;;;;;33.10;9.27;;;;;;;;;;5071144;28;20966;-62
2022/10/30 05:39:23;;;;;;;27.93;13.07;;;11.40;99.40;;;;;;5073240;28;20477;-62
2022/10/30 05:41:50;;;;;;;25.50;11.97;;;9.50;99.00;;;;;;5080019;28;20932;-61
2022/10/30 05:44:16;;;;;;;25.53;7.43;;;11.20;99.60;;;;;;5075035;28;20485;-61
2022/10/30 05:46:45;;;;;;;27.77;11.03;;;11.20;99.50;;;;;;5061531;28;20499;-61
2022/10/30 05:49:11;;;;;;;26.80;11.37;;;11.10;99.40;;;;;;5081800;28;20480;-61
2022/10/30 05:51:38;;;;;;;27.23;8.30;;;11.10;99.20;;;;;;5081283;28;20485;-60
2022/10/30 05:54:05;;;;;;;17.67;8.80;;;11.00;99.20;;;;;;5075691;28;20884;-61
2022/10/30 05:56:32;;;;;;;29.97;9.17;;;11.00;99.30;;;;;;5074971;28;20490;-61
2022/10/30 05:58:59;;;;;;;36.80;9.40;;;11.00;99.40;;;;;;5044515;28;20493;-62
2022/10/30 06:01:26;;;;;;;22.30;12.30;;;11.00;99.40;;;;;;5084371;28;20874;-63
2022/10/30 06:03:54;;;;;;;21.63;8.83;;;11.00;99.40;;;;;;5071395;28;20868;-62
2022/10/30 06:06:21;;;;;;;27.83;9.87;;;11.00;99.50;;;;;;5066143;28;20489;-63
2022/10/30 06:08:48;;;;;;;17.30;9.40;;;;;;;;;;5073188;28;20513;-62
2022/10/30 06:11:14;;;;;;;17.13;8.23;;;11.10;99.50;;;;;;5075896;28;20478;-62
2022/10/30 06:13:41;;;;;;;26.90;9.10;;;;;;;;;;5074476;28;20751;-62
2022/10/30 06:16:08;;;;;;;17.07;9.33;;;11.00;99.20;;;;;;5070258;28;20826;-62
2022/10/30 06:18:35;;;;;;;33.40;9.53;;;12.00;99.40;;;;;;5075746;28;20831;-62
2022/10/30 06:21:03;;;;;;;36.70;9.97;;;10.90;99.00;;;;;;5075865;28;20477;-62
2022/10/30 06:23:30;;;;;;;21.83;7.40;;;10.90;99.00;;;;;;5074943;28;20502;-62
2022/10/30 06:25:58;;;;;;;30.67;9.13;;;;;;;;;;5072957;28;20490;-62
2022/10/30 06:28:25;;;;;;;34.50;11.60;;;10.80;99.30;;;;;;5078488;28;20482;-62
2022/10/30 06:30:53;;;;;;;27.80;10.80;;;10.80;99.70;;;;;;5071838;28;20485;-62
2022/10/30 06:33:20;;;;;;;64.03;27.70;;;10.80;99.90;;;;;;5071201;28;20494;-62
2022/10/30 06:35:48;;;;;;;48.93;16.33;;;;;;;;;;5074180;28;20494;-61
2022/10/30 06:38:16;;;;;;;54.30;16.67;;;10.90;99.90;;;;;;5072240;28;20716;-62
2022/10/30 06:40:43;;;;;;;35.73;12.53;;;10.80;99.20;;;;;;5075978;28;20857;-62
2022/10/30 06:43:10;;;;;;;31.00;11.70;;;;;;;;;;5061776;28;20713;-62
2022/10/30 06:45:37;;;;;;;30.93;13.40;;;10.90;99.50;;;;;;5076772;28;20780;-61
2022/10/30 06:48:04;;;;;;;35.23;14.47;;;10.90;99.50;;;;;;5073750;28;20486;-62
2022/10/30 06:50:30;;;;;;;37.93;11.37;;;10.90;99.50;;;;;;5076209;28;20470;-62
2022/10/30 06:52:57;;;;;;;34.80;11.80;;;11.00;99.60;;;;;;5077649;28;20981;-62
2022/10/30 06:55:25;;;;;;;47.67;16.00;;;11.10;99.70;;;;;;5071613;28;20490;-62
2022/10/30 06:57:56;;;;;;;34.03;12.23;;;11.10;99.70;;;;;;5067388;28;20743;-62
2022/10/30 07:00:23;;;;;;;42.97;13.70;;;11.10;99.50;;;;;;5060475;28;20485;-62
2022/10/30 07:03:03;;;;;;;38.57;10.73;;;11.10;98.90;;;;;;5066228;28;20603;-62
2022/10/30 07:05:30;;;;;;;23.03;9.10;;;11.10;99.00;;;;;;5066244;28;20490;-62
2022/10/30 07:07:57;;;;;;;23.87;9.20;;;;;;;;;;5071279;28;20483;-63
2022/10/30 07:10:26;;;;;;;29.63;9.53;;;;;;;;;;5072488;28;20839;-62
2022/10/30 07:12:57;;;;;;;21.17;10.70;;;;;;;;;;5064925;28;20670;-62
2022/10/30 07:15:24;;;;;;;30.43;12.00;;;;;;;;;;5062675;28;20478;-62
2022/10/30 07:17:53;;;;;;;31.93;9.17;;;11.80;99.80;;;;;;5071647;28;20490;-62
2022/10/30 07:20:20;;;;;;;52.60;15.47;;;12.00;99.30;;;;;;5074027;28;20550;-62
2022/10/30 07:22:47;;;;;;;31.33;11.03;;;12.10;99.00;;;;;;5069087;28;20487;-62
2022/10/30 07:25:14;;;;;;;60.93;14.83;;;12.10;98.40;;;;;;5058773;28;20539;-62
2022/10/30 07:27:47;;;;;;;32.33;11.60;;;12.30;98.70;;;;;;5085785;27;20475;-62
2022/10/30 07:30:15;;;;;;;45.27;13.10;;;12.60;99.10;;;;;;5064844;28;20939;-62
2022/10/30 07:32:42;;;;;;;27.47;11.27;;;12.90;99.30;;;;;;5084363;28;20906;-63
2022/10/30 07:35:10;;;;;;;26.53;10.67;;;13.60;99.80;;;;;;5073209;28;22116;-63
2022/10/30 07:37:38;;;;;;;31.80;10.50;;;;;;;;;;5069598;28;21204;-63
2022/10/30 07:40:05;;;;;;;25.53;12.40;;;15.40;98.60;;;;;;5072577;28;20995;-63
2022/10/30 07:42:33;;;;;;;42.57;12.07;;;16.40;97.40;;;;;;5066487;28;20900;-63
2022/10/30 07:45:01;;;;;;;28.17;9.07;;;17.60;97.40;;;;;;5080179;28;20482;-63
2022/10/30 07:47:27;;;;;;;27.23;10.47;;;20.40;96.40;;;;;;5067557;28;20474;-63
2022/10/30 07:49:54;;;;;;;19.70;9.07;;;19.20;94.50;;;;;;5070162;28;20483;-63
2022/10/30 07:52:21;;;;;;;24.37;9.70;;;;;;;;;;5066562;28;20886;-63
2022/10/30 07:54:48;;;;;;;27.53;9.60;;;;;;;;;;5073487;28;20882;-63
2022/10/30 07:57:15;;;;;;;17.27;11.13;;;21.80;93.30;;;;;;5071218;28;20501;-63
2022/10/30 07:59:42;;;;;;;27.13;8.17;;;22.30;91.70;;;;;;5073444;28;20482;-64
2022/10/30 08:02:10;;;;;;;31.50;8.97;;;23.10;91.80;;;;;;5073481;28;20494;-63
2022/10/30 08:04:36;;;;;;;31.50;10.33;;;23.80;90.70;;;;;;5072757;28;20516;-64
2022/10/30 08:07:03;;;;;;;20.57;7.30;;;24.40;90.00;;;;;;5066987;28;20521;-64
2022/10/30 08:09:30;;;;;;;18.80;7.53;;;24.70;88.80;;;;;;5072586;28;20497;-64
2022/10/30 08:11:57;;;;;;;15.57;7.77;;;24.80;88.70;;;;;;5074830;28;20564;-64
2022/10/30 08:14:24;;;;;;;28.47;9.63;;;;;;;;;;5065693;28;20478;-63
2022/10/30 08:16:51;;;;;;;20.83;8.90;;;24.90;87.60;;;;;;5081058;28;20490;-64
2022/10/30 08:19:19;;;;;;;25.03;10.87;;;;;;;;;;5070777;28;20479;-64
2022/10/30 08:21:46;;;;;;;22.93;8.60;;;25.00;88.40;;;;;;5062093;28;20710;-64
2022/10/30 08:24:13;;;;;;;15.83;10.47;;;;;;;;;;5080215;28;20477;-64
2022/10/30 08:26:40;;;;;;;27.17;11.30;;;;;;;;;;5070139;28;20489;-64
2022/10/30 08:29:07;;;;;;;39.73;10.47;;;24.90;88.10;;;;;;5067799;28;20877;-64
2022/10/30 08:31:34;;;;;;;76.27;12.63;;;;;;;;;;5064057;28;20482;-63
2022/10/30 08:34:01;;;;;;;63.43;12.70;;;24.90;87.70;;;;;;5066416;28;20478;-64
2022/10/30 08:36:29;;;;;;;59.03;12.10;;;24.80;88.70;;;;;;5075138;28;20462;-64
2022/10/30 08:38:57;;;;;;;40.63;12.90;;;24.60;89.30;;;;;;5070021;28;20481;-64
2022/10/30 08:41:24;;;;;;;46.43;14.60;;;24.40;89.30;;;;;;5074950;28;20905;-64
2022/10/30 08:43:50;;;;;;;42.43;12.30;;;24.20;90.00;;;;;;5076511;28;21106;-63
2022/10/30 08:46:17;;;;;;;28.73;13.03;;;;;;;;;;5076762;28;20501;-64
2022/10/30 08:48:44;;;;;;;28.63;9.60;;;23.80;90.70;;;;;;5075123;28;20906;-64
2022/10/30 08:51:11;;;;;;;27.53;11.50;;;23.60;90.90;;;;;;5072095;28;20515;-63
2022/10/30 08:53:40;;;;;;;36.73;10.00;;;;;;;;;;5075430;28;20460;-63
2022/10/30 08:56:07;;;;;;;30.40;9.27;;;23.40;91.50;;;;;;5079032;28;20482;-64
2022/10/30 08:58:33;;;;;;;20.27;7.67;;;23.30;91.60;;;;;;5079958;28;20470;-63
2022/10/30 09:01:00;;;;;;;30.43;8.97;;;23.20;92.00;;;;;;5081228;28;20882;-64
2022/10/30 09:03:27;;;;;;;23.77;8.80;;;23.00;92.20;;;;;;5076909;28;20950;-63
2022/10/30 09:05:54;;;;;;;31.77;9.07;;;23.00;92.40;;;;;;5069730;28;21125;-63
2022/10/30 09:08:20;;;;;;;23.53;10.40;;;22.90;93.10;;;;;;5075473;28;20509;-64
2022/10/30 09:10:53;;;;;;;16.13;7.50;;;22.70;93.20;;;;;;5076131;28;20478;-64
2022/10/30 09:13:20;;;;;;;21.67;10.07;;;;;;;;;;5071710;28;20528;-63
2022/10/30 09:15:47;;;;;;;18.83;7.47;;;;;;;;;;5075791;28;20493;-62
2022/10/30 09:18:14;;;;;;;31.37;10.93;;;22.50;93.10;;;;;;5075805;28;20456;-64
2022/10/30 09:20:41;;;;;;;40.77;9.50;;;22.20;93.20;;;;;;5073469;28;20559;-64
2022/10/30 09:23:08;;;;;;;29.73;9.87;;;21.80;93.50;;;;;;5072300;28;20460;-64
2022/10/30 09:25:35;;;;;;;22.83;9.10;;;21.70;94.60;;;;;;5071594;28;20828;-64
2022/10/30 09:28:03;;;;;;;29.47;8.70;;;;;;;;;;5061214;28;20492;-63
2022/10/30 09:30:30;;;;;;;20.03;7.87;;;22.00;95.30;;;;;;5073310;28;20501;-64
2022/10/30 09:32:57;;;;;;;23.07;9.50;;;22.20;95.20;;;;;;5077627;28;20505;-63
2022/10/30 09:35:25;;;;;;;19.83;9.47;;;;;;;;;;5075534;28;20478;-63
2022/10/30 09:37:52;;;;;;;23.00;10.00;;;;;;;;;;5066822;28;20508;-64
2022/10/30 09:40:23;;;;;;;30.03;11.20;;;22.80;93.70;;;;;;5055479;28;20464;-64
2022/10/30 09:42:51;;;;;;;17.93;9.10;;;23.00;94.40;;;;;;5064485;28;21236;-63
2022/10/30 09:45:44;;;;;;;31.03;13.13;;;23.10;94.30;;;;;;5072545;28;20490;-63
2022/10/30 09:48:34;;;;;;;21.93;7.87;;;23.30;94.40;;;;;;5061165;28;20501;-64
2022/10/30 09:51:08;;;;;;;41.80;8.47;;;;;;;;;;5070238;28;20456;-64
2022/10/30 09:53:44;;;;;;;20.57;8.77;;;23.40;93.40;;;;;;5055800;28;20467;-63
2022/10/30 09:56:17;;;;;;;39.87;9.30;;;23.60;94.60;;;;;;5074288;28;20535;-64
2022/10/30 09:58:53;;;;;;;20.97;7.97;;;;;;;;;;5069404;28;20452;-63
2022/10/30 10:01:28;;;;;;;25.00;11.20;;;23.80;94.30;;;;;;5060341;28;20916;-64
2022/10/30 10:04:01;;;;;;;26.90;10.27;;;24.00;95.30;;;;;;5073854;28;21213;-64
2022/10/30 10:06:29;;;;;;;24.23;9.20;;;24.10;95.00;;;;;;5060737;28;20506;-63
2022/10/30 10:09:02;;;;;;;40.33;8.90;;;24.20;95.10;;;;;;5071765;28;20513;-63
2022/10/30 10:11:31;;;;;;;29.27;8.83;;;;;;;;;;5065008;28;20477;-64
2022/10/30 10:14:03;;;;;;;31.43;9.90;;;24.30;95.20;;;;;;5080015;28;20962;-64
2022/10/30 10:16:35;;;;;;;46.27;9.80;;;26.10;95.60;;;;;;5078449;28;20489;-64
2022/10/30 10:19:10;;;;;;;29.67;11.00;;;24.40;94.80;;;;;;5063019;28;20486;-64
2022/10/30 10:21:40;;;;;;;31.53;9.47;;;;;;;;;;5076736;28;20481;-64
2022/10/30 10:24:15;;;;;;;30.20;8.63;;;24.40;93.50;;;;;;5066801;28;20554;-64
2022/10/30 10:26:48;;;;;;;31.70;10.40;;;24.30;94.20;;;;;;5055792;28;20453;-64
2022/10/30 10:29:33;;;;;;;45.67;13.07;;;24.20;94.20;;;;;;5067188;28;20780;-64
2022/10/30 10:32:27;;;;;;;35.23;8.43;;;24.10;92.70;;;;;;5073401;28;20566;-64
2022/10/30 10:35:05;;;;;;;36.50;8.73;;;24.20;93.10;;;;;;5065679;28;20452;-64
2022/10/30 10:37:44;;;;;;;36.03;9.13;;;24.10;93.70;;;;;;5063091;28;20505;-64
2022/10/30 10:40:25;;;;;;;27.13;8.87;;;24.10;91.60;;;;;;5048776;28;20978;-63
2022/10/30 10:42:56;;;;;;;23.23;8.70;;;;;;;;;;5062745;28;20481;-64
2022/10/30 10:45:30;;;;;;;30.23;9.57;;;23.90;89.40;;;;;;5070146;28;20984;-65
2022/10/30 10:48:22;;;;;;;34.30;9.17;;;23.70;90.20;;;;;;5072099;28;20811;-64
2022/10/30 10:50:52;;;;;;;29.77;7.03;;;23.60;89.00;;;;;;5062888;28;20470;-64
2022/10/30 10:53:21;;;;;;;31.80;10.40;;;;;;;;;;5071818;28;20485;-64
2022/10/30 10:55:51;;;;;;;15.20;6.80;;;23.60;87.50;;;;;;5064483;28;20561;-64
2022/10/30 10:58:25;;;;;;;33.57;8.27;;;23.50;83.60;;;;;;5067952;28;20719;-64
2022/10/30 11:00:53;;;;;;;27.73;8.03;;;;;;;;;;5071066;28;20486;-64
2022/10/30 11:03:25;;;;;;;39.10;11.60;;;22.30;83.10;;;;;;5072219;28;20486;-65
2022/10/30 11:05:56;;;;;;;31.53;8.80;;;23.50;85.10;;;;;;5062375;28;20464;-65
2022/10/30 11:08:26;;;;;;;37.87;12.60;;;23.60;83.70;;;;;;5080736;28;20460;-65
2022/10/30 11:10:57;;;;;;;21.03;5.70;;;23.60;83.70;;;;;;5062165;28;20483;-65
2022/10/30 11:13:27;;;;;;;32.27;9.67;;;23.70;85.20;;;;;;5086158;28;20453;-64
2022/10/30 11:16:01;;;;;;;26.67;7.07;;;23.70;85.80;;;;;;5049238;28;20846;-64
2022/10/30 11:18:29;;;;;;;20.13;6.90;;;23.80;85.90;;;;;;5074365;28;20441;-64
2022/10/30 11:21:01;;;;;;;22.70;7.50;;;24.00;84.50;;;;;;5068122;28;20487;-65
2022/10/30 11:23:39;;;;;;;20.30;4.80;;;;;;;;;;5069440;28;20841;-65
2022/10/30 11:26:26;;;;;;;15.33;4.43;;;24.30;84.20;;;;;;5072831;28;20972;-65
2022/10/30 11:28:55;;;;;;;24.73;7.10;;;24.30;84.70;;;;;;5062934;28;20470;-65
2022/10/30 11:31:32;;;;;;;23.67;6.20;;;24.40;84.90;;;;;;5063480;28;20479;-64
2022/10/30 11:34:13;;;;;;;32.17;5.50;;;;;;;;;;5049196;28;20471;-65
2022/10/30 11:36:40;;;;;;;21.47;4.30;;;24.70;84.30;;;;;;5070669;28;20950;-64
2022/10/30 11:39:10;;;;;;;20.00;3.87;;;24.60;83.10;;;;;;5064308;28;20882;-65
2022/10/30 11:41:37;;;;;;;20.93;4.40;;;24.60;82.50;;;;;;5071468;28;20470;-65
2022/10/30 11:44:06;;;;;;;10.87;3.80;;;;;;;;;;5066366;28;20485;-65
2022/10/30 11:46:34;;;;;;;17.27;3.63;;;;;;;;;;5077031;28;20479;-65
2022/10/30 11:49:03;;;;;;;17.67;4.93;;;24.60;82.50;;;;;;5068445;28;20475;-65
2022/10/30 11:51:35;;;;;;;26.43;6.00;;;;;;;;;;5059249;28;20464;-65
2022/10/30 11:54:03;;;;;;;14.10;4.70;;;24.60;82.40;;;;;;5064420;28;20493;-65
2022/10/30 11:56:31;;;;;;;31.77;5.70;;;24.60;83.70;;;;;;5061420;28;20463;-65
2022/10/30 11:59:00;;;;;;;10.43;3.73;;;24.60;82.60;;;;;;5070364;28;20513;-65
2022/10/30 12:01:29;;;;;;;27.30;5.10;;;;;;;;;;5063313;28;20464;-65
2022/10/30 12:03:57;;;;;;;20.97;4.77;;;;;;;;;;5081001;28;20481;-65
2022/10/30 12:06:29;;;;;;;13.27;3.87;;;25.10;86.60;;;;;;5073841;28;20455;-65
2022/10/30 12:08:59;;;;;;;11.47;3.23;;;25.10;82.80;;;;;;5070842;28;20853;-65
2022/10/30 12:11:29;;;;;;;13.60;3.43;;;25.20;86.20;;;;;;5070651;28;20550;-65
2022/10/30 12:13:56;;;;;;;22.13;3.50;;;25.10;82.90;;;;;;5066062;28;20495;-65
2022/10/30 12:16:23;;;;;;;14.97;4.33;;;;;;;;;;5060576;28;20524;-65
2022/10/30 12:18:55;;;;;;;6.97;3.00;;;;;;;;;;5070579;28;20487;-64
2022/10/30 12:21:22;;;;;;;10.20;2.90;;;;;;;;;;5063602;28;20824;-65
2022/10/30 12:23:56;;;;;;;14.00;3.73;;;25.10;86.10;;;;;;5075853;28;20995;-65
2022/10/30 12:26:25;;;;;;;42.07;4.80;;;25.30;86.60;;;;;;5069917;28;20454;-65
2022/10/30 12:28:56;;;;;;;15.20;3.03;;;25.50;85.00;;;;;;5068700;28;20572;-65
2022/10/30 12:31:30;;;;;;;16.33;4.13;;;25.60;84.30;;;;;;5063909;28;20454;-65
2022/10/30 12:34:25;;;;;;;10.50;2.70;;;25.70;81.50;;;;;;5065506;28;20888;-65
2022/10/30 12:36:56;;;;;;;14.23;3.60;;;25.80;80.00;;;;;;5060681;28;20489;-65
2022/10/30 12:40:20;;;;;;;7.80;2.50;;;25.80;77.90;;;;;;5065843;28;20454;-65
2022/10/30 12:42:57;;;;;;;6.63;2.20;;;25.60;77.40;;;;;;5073523;28;20461;-65
2022/10/30 12:45:30;;;;;;;14.70;2.70;;;25.50;79.10;;;;;;5059171;28;20450;-64
2022/10/30 12:48:01;;;;;;;11.43;3.00;;;25.20;77.10;;;;;;5066629;28;20464;-65
2022/10/30 12:50:31;;;;;;;13.33;3.30;;;;;;;;;;5066715;28;20489;-65
2022/10/30 12:53:05;;;;;;;6.80;2.13;;;25.10;77.90;;;;;;5073925;28;20458;-65
2022/10/30 12:55:36;;;;;;;9.13;2.30;;;25.10;79.20;;;;;;5073527;28;21000;-65
2022/10/30 12:58:13;;;;;;;10.20;2.83;;;25.10;77.70;;;;;;5067581;28;20513;-65
2022/10/30 13:00:46;;;;;;;18.53;3.10;;;;;;;;;;5067272;28;20480;-65
2022/10/30 13:03:23;;;;;;;16.80;2.67;;;25.10;78.00;;;;;;5066668;28;20478;-65
2022/10/30 13:05:54;;;;;;;15.83;2.27;;;25.10;79.10;;;;;;5069576;28;20456;-64
2022/10/30 13:08:25;;;;;;;17.40;3.40;;;25.10;76.30;;;;;;5054832;28;20545;-65